createdAt,value
2022-08-03T00:01:09.922Z,23.3
2022-08-03T00:04:10.167Z,23.3
2022-08-03T00:07:10.436Z,23.3
2022-08-03T00:10:10.643Z,23.3
2022-08-03T00:13:10.877Z,23.3
2022-08-03T00:16:11.115Z,23.3
2022-08-03T00:19:06.328Z,23.3
2022-08-03T00:22:06.561Z,23.3
2022-08-03T00:25:06.800Z,23.3
2022-08-03T00:28:08.847Z,23.3
2022-08-03T00:31:07.528Z,22.8
2022-08-03T00:34:07.529Z,22.8
2022-08-03T00:37:07.805Z,22.8
2022-08-03T00:40:08.058Z,22.8
2022-08-03T00:43:08.252Z,22.8
2022-08-03T00:46:08.617Z,22.8
2022-08-03T00:49:08.982Z,22.8
2022-08-03T00:52:10.065Z,22.8
2022-08-03T00:55:09.196Z,22.8
2022-08-03T00:58:09.473Z,22.8
2022-08-03T01:01:09.963Z,22.8
2022-08-03T01:04:09.960Z,22.8
2022-08-03T01:07:11.417Z,22.8
2022-08-03T01:10:10.423Z,22.8
2022-08-03T01:14:20.127Z,22.3
2022-08-03T01:16:10.873Z,22.3
2022-08-03T01:19:11.117Z,22.3
2022-08-03T01:22:06.329Z,22.3
2022-08-03T01:25:06.586Z,22.3
2022-08-03T01:28:06.821Z,22.3
2022-08-03T01:31:07.061Z,22.3
2022-08-03T01:34:15.059Z,22.3
2022-08-03T01:37:07.559Z,22.3
2022-08-03T01:40:07.838Z,22.3
2022-08-03T01:43:08.029Z,22.3
2022-08-03T01:46:08.274Z,22.3
2022-08-03T01:49:09.999Z,22.3
2022-08-03T01:52:08.784Z,22.3
2022-08-03T01:55:09.182Z,22.3
2022-08-03T01:58:09.248Z,21.8
2022-08-03T02:01:09.811Z,21.8
2022-08-03T02:04:09.728Z,21.8
2022-08-03T02:07:09.930Z,21.8
2022-08-03T02:10:10.201Z,21.8
2022-08-03T02:13:10.446Z,21.8
2022-08-03T02:16:10.669Z,21.8
2022-08-03T02:19:10.931Z,21.8
2022-08-03T02:22:11.528Z,21.8
2022-08-03T02:25:11.381Z,21.8
2022-08-03T02:28:06.611Z,21.8
2022-08-03T02:31:06.840Z,21.8
2022-08-03T02:34:07.080Z,21.8
2022-08-03T02:37:07.344Z,21.8
2022-08-03T02:40:07.605Z,21.4
2022-08-03T02:43:07.821Z,21.4
2022-08-03T02:46:08.099Z,21.4
2022-08-03T02:49:52.912Z,21.4
2022-08-03T02:52:16.978Z,21.4
2022-08-03T02:55:08.784Z,21.4
2022-08-03T02:58:09.007Z,21.4
2022-08-03T03:01:09.466Z,21.4
2022-08-03T03:04:09.530Z,21.4
2022-08-03T03:07:11.126Z,21.4
2022-08-03T03:10:10.045Z,21.4
2022-08-03T03:13:10.281Z,21.4
2022-08-03T03:16:10.485Z,21.4
2022-08-03T03:19:10.699Z,21.4
2022-08-03T03:22:10.960Z,21
2022-08-03T03:25:11.204Z,21
2022-08-03T03:28:06.880Z,21
2022-08-03T03:31:11.690Z,21
2022-08-03T03:34:06.998Z,21
2022-08-03T03:37:07.142Z,21
2022-08-03T03:40:07.406Z,21
2022-08-03T03:43:07.641Z,21
2022-08-03T03:46:07.938Z,21
2022-08-03T03:49:08.373Z,21
2022-08-03T03:52:08.356Z,21
2022-08-03T03:55:08.603Z,21
2022-08-03T03:58:08.876Z,21
2022-08-03T04:01:09.317Z,21
2022-08-03T04:04:09.300Z,21
2022-08-03T04:07:09.540Z,20.6
2022-08-03T04:10:15.304Z,20.6
2022-08-03T04:13:10.039Z,20.6
2022-08-03T04:16:10.296Z,20.6
2022-08-03T04:19:10.535Z,20.6
2022-08-03T04:22:10.903Z,20.6
2022-08-03T04:25:05.958Z,20.6
2022-08-03T04:28:32.316Z,20.6
2022-08-03T04:31:06.436Z,20.6
2022-08-03T04:34:06.689Z,20.6
2022-08-03T04:37:08.167Z,20.6
2022-08-03T04:40:07.205Z,20.6
2022-08-03T04:43:07.443Z,20.6
2022-08-03T04:46:07.700Z,20.6
2022-08-03T04:49:08.326Z,20.2
2022-08-03T04:52:08.214Z,20.2
2022-08-03T04:55:08.372Z,20.2
2022-08-03T04:58:08.648Z,20.2
2022-08-03T05:01:08.945Z,20.2
2022-08-03T05:04:09.089Z,20.2
2022-08-03T05:07:12.853Z,20.2
2022-08-03T05:10:17.498Z,20.2
2022-08-03T05:13:09.833Z,20.2
2022-08-03T05:16:10.009Z,20.2
2022-08-03T05:19:10.229Z,20.2
2022-08-03T05:22:10.598Z,20.2
2022-08-03T05:25:27.534Z,20.2
2022-08-03T05:28:10.944Z,20.2
2022-08-03T05:31:11.172Z,20.2
2022-08-03T05:34:11.442Z,20
2022-08-03T05:37:06.668Z,20
2022-08-03T05:40:06.910Z,20
2022-08-03T05:43:07.163Z,20
2022-08-03T05:46:13.609Z,20
2022-08-03T05:49:08.111Z,20
2022-08-03T05:52:18.559Z,20
2022-08-03T05:55:08.058Z,20
2022-08-03T05:58:11.386Z,20
2022-08-03T06:01:09.020Z,20
2022-08-03T06:04:08.817Z,20
2022-08-03T06:07:09.019Z,20
2022-08-03T06:10:38.743Z,20
2022-08-03T06:13:09.539Z,20
2022-08-03T06:16:09.793Z,20
2022-08-03T06:19:10.012Z,20
2022-08-03T06:22:10.542Z,20
2022-08-03T06:25:14.391Z,20
2022-08-03T06:28:54.667Z,20
2022-08-03T06:31:10.988Z,20
2022-08-03T06:34:36.082Z,20
2022-08-03T06:37:06.415Z,20
2022-08-03T06:40:06.666Z,20
2022-08-03T06:43:16.205Z,20
2022-08-03T06:46:07.157Z,20
2022-08-03T06:49:07.818Z,20
2022-08-03T06:52:07.663Z,20
2022-08-03T06:55:07.897Z,20
2022-08-03T06:58:08.131Z,20
2022-08-03T07:01:08.650Z,20.3
2022-08-03T07:04:08.616Z,20.3
2022-08-03T07:07:10.026Z,20.3
2022-08-03T07:10:09.090Z,20.3
2022-08-03T07:13:09.322Z,20.3
2022-08-03T07:16:09.613Z,20.3
2022-08-03T07:19:09.828Z,20.3
2022-08-03T07:22:10.080Z,20.3
2022-08-03T07:25:10.290Z,20.3
2022-08-03T07:28:10.559Z,20.3
2022-08-03T07:31:10.712Z,20.3
2022-08-03T07:34:11.037Z,20.3
2022-08-03T07:37:06.171Z,20.3
2022-08-03T07:40:06.400Z,20.3
2022-08-03T07:43:06.634Z,21
2022-08-03T07:46:06.889Z,21
2022-08-03T07:49:07.382Z,21
2022-08-03T07:52:07.374Z,21
2022-08-03T07:55:07.630Z,21
2022-08-03T07:58:07.906Z,21
2022-08-03T08:01:15.127Z,21
2022-08-03T08:04:08.349Z,21
2022-08-03T08:07:08.882Z,21
2022-08-03T08:10:08.812Z,21
2022-08-03T08:13:09.058Z,21
2022-08-03T08:16:09.313Z,21
2022-08-03T08:19:13.040Z,21
2022-08-03T08:22:11.772Z,21
2022-08-03T08:25:10.071Z,21
2022-08-03T08:28:34.052Z,22.1
2022-08-03T08:31:10.514Z,22.1
2022-08-03T08:34:10.745Z,22.1
2022-08-03T08:37:10.973Z,22.1
2022-08-03T08:40:06.189Z,22.1
2022-08-03T08:43:07.980Z,22.1
2022-08-03T08:46:06.661Z,22.1
2022-08-03T08:49:07.966Z,22.1
2022-08-03T08:52:32.418Z,22.1
2022-08-03T08:55:08.007Z,22.1
2022-08-03T08:58:08.273Z,22.1
2022-08-03T09:01:08.435Z,22.1
2022-08-03T09:04:08.739Z,22.1
2022-08-03T09:07:21.408Z,22.1
2022-08-03T09:10:14.156Z,22.1
2022-08-03T09:13:10.539Z,23.1
2022-08-03T09:16:09.336Z,23.1
2022-08-03T09:19:09.325Z,23.1
2022-08-03T09:22:09.807Z,23.1
2022-08-03T09:25:25.887Z,23.1
2022-08-03T09:28:11.042Z,23.1
2022-08-03T09:31:10.985Z,23.1
2022-08-03T09:34:10.554Z,23.1
2022-08-03T09:37:10.777Z,23.1
2022-08-03T09:40:12.066Z,23.1
2022-08-03T09:43:06.238Z,23.1
2022-08-03T09:46:12.114Z,23.1
2022-08-03T09:49:14.208Z,23.1
2022-08-03T09:52:52.985Z,23.1
2022-08-03T09:56:38.052Z,24.3
2022-08-03T09:58:08.014Z,24.3
2022-08-03T10:01:25.747Z,24.3
2022-08-03T10:04:08.031Z,24.3
2022-08-03T10:07:07.978Z,24.3
2022-08-03T10:10:32.658Z,24.3
2022-08-03T10:13:08.437Z,24.3
2022-08-03T10:16:26.319Z,24.3
2022-08-03T10:19:08.907Z,24.3
2022-08-03T10:22:09.156Z,24.3
2022-08-03T10:25:09.414Z,24.3
2022-08-03T10:28:09.634Z,24.3
2022-08-03T10:31:09.873Z,24.3
2022-08-03T10:34:10.125Z,24.3
2022-08-03T10:37:10.335Z,24.3
2022-08-03T10:43:10.828Z,25.5
2022-08-03T10:46:11.097Z,25.5
2022-08-03T10:49:06.583Z,25.5
2022-08-03T10:52:42.848Z,25.5
2022-08-03T10:55:11.189Z,25.5
2022-08-03T10:58:11.549Z,25.5
2022-08-03T11:01:07.576Z,25.5
2022-08-03T11:04:17.338Z,25.5
2022-08-03T11:07:07.637Z,25.5
2022-08-03T11:10:10.959Z,25.5
2022-08-03T11:13:08.142Z,25.5
2022-08-03T11:16:22.455Z,25.5
2022-08-03T11:19:08.635Z,25.5
2022-08-03T11:22:08.900Z,26.7
2022-08-03T11:25:55.625Z,26.7
2022-08-03T11:28:09.797Z,26.7
2022-08-03T11:31:51.477Z,26.7
2022-08-03T11:34:09.859Z,26.7
2022-08-03T11:37:10.079Z,26.7
2022-08-03T11:40:15.322Z,26.7
2022-08-03T11:43:10.596Z,26.7
2022-08-03T11:46:10.792Z,26.7
2022-08-03T11:49:11.848Z,26.7
2022-08-03T11:52:11.263Z,26.7
2022-08-03T11:55:06.482Z,26.7
2022-08-03T11:59:22.855Z,26.7
2022-08-03T12:01:11.975Z,26.7
2022-08-03T12:04:07.255Z,26.7
2022-08-03T12:07:07.476Z,27.8
2022-08-03T12:10:08.011Z,27.8
2022-08-03T12:14:52.772Z,27.8
2022-08-03T12:16:08.188Z,27.8
2022-08-03T12:19:08.442Z,27.8
2022-08-03T12:22:08.659Z,27.8
2022-08-03T12:25:08.886Z,27.8
2022-08-03T12:28:44.954Z,27.8
2022-08-03T12:31:09.715Z,27.8
2022-08-03T12:34:09.629Z,27.8
2022-08-03T12:37:24.063Z,27.8
2022-08-03T12:40:20.689Z,27.8
2022-08-03T12:43:10.336Z,27.8
2022-08-03T12:46:10.540Z,27.8
2022-08-03T12:49:10.982Z,28.7
2022-08-03T12:52:11.029Z,28.7
2022-08-03T12:55:11.337Z,28.7
2022-08-03T12:58:06.464Z,28.7
2022-08-03T13:01:14.119Z,28.7
2022-08-03T13:04:07.000Z,28.7
2022-08-03T13:07:14.831Z,28.7
2022-08-03T13:10:08.820Z,28.7
2022-08-03T13:13:07.696Z,28.7
2022-08-03T13:16:07.932Z,28.7
2022-08-03T13:19:16.459Z,28.7
2022-08-03T13:22:08.393Z,28.7
2022-08-03T13:25:08.675Z,28.7
2022-08-03T13:28:15.277Z,28.7
2022-08-03T13:31:09.136Z,28.7
2022-08-03T13:34:09.333Z,29.3
2022-08-03T13:37:10.691Z,29.3
2022-08-03T13:40:14.916Z,29.3
2022-08-03T13:43:10.057Z,29.3
2022-08-03T13:46:10.295Z,29.3
2022-08-03T13:49:10.545Z,29.3
2022-08-03T13:52:10.763Z,29.3
2022-08-03T13:55:11.390Z,29.3
2022-08-03T13:58:07.918Z,29.3
2022-08-03T14:01:11.782Z,29.3
2022-08-03T14:04:22.763Z,29.3
2022-08-03T14:07:12.186Z,29.3
2022-08-03T14:10:07.230Z,29.3
2022-08-03T14:13:07.480Z,29.3
2022-08-03T14:16:10.335Z,29.5
2022-08-03T14:19:08.574Z,29.5
2022-08-03T14:22:08.143Z,29.5
2022-08-03T14:25:13.903Z,29.5
2022-08-03T14:28:08.602Z,29.5
2022-08-03T14:32:13.916Z,29.5
2022-08-03T14:34:09.076Z,29.5
2022-08-03T14:37:09.257Z,29.5
2022-08-03T14:40:09.748Z,29.5
2022-08-03T14:43:09.737Z,29.5
2022-08-03T14:46:09.985Z,29.5
2022-08-03T14:50:51.350Z,29.5
2022-08-03T14:52:10.458Z,29.5
2022-08-03T14:55:10.693Z,29.5
2022-08-03T14:58:22.554Z,29.5
2022-08-03T15:02:23.483Z,29.8
2022-08-03T15:04:06.435Z,29.8
2022-08-03T15:07:06.642Z,29.8
2022-08-03T15:10:06.904Z,29.8
2022-08-03T15:13:07.199Z,29.8
2022-08-03T15:16:11.468Z,29.8
2022-08-03T15:20:43.334Z,29.8
2022-08-03T15:21:51.385Z,29.8
2022-08-03T15:26:41.941Z,29.8
2022-08-03T15:28:07.683Z,29.8
2022-08-03T15:31:07.980Z,29.8
2022-08-03T15:34:08.129Z,29.8
2022-08-03T15:37:17.212Z,29.8
2022-08-03T15:40:08.788Z,29.8
2022-08-03T15:43:08.872Z,29.8
2022-08-03T15:46:30.478Z,30
2022-08-03T15:49:09.350Z,30
2022-08-03T15:52:09.814Z,30
2022-08-03T15:55:17.499Z,30
2022-08-03T15:59:14.369Z,30
2022-08-03T16:01:10.865Z,30
2022-08-03T16:04:10.527Z,30
2022-08-03T16:07:18.525Z,30
2022-08-03T16:10:10.937Z,30
2022-08-03T16:13:11.143Z,30
2022-08-03T16:16:11.435Z,30
2022-08-03T16:19:06.649Z,30
2022-08-03T16:22:07.147Z,30
2022-08-03T16:25:16.714Z,30
2022-08-03T16:28:15.582Z,30.1
2022-08-03T16:31:07.577Z,30.1
2022-08-03T16:34:08.038Z,30.1
2022-08-03T16:37:39.660Z,30.1
2022-08-03T16:40:19.756Z,30.1
2022-08-03T16:43:19.489Z,30.1
2022-08-03T16:46:08.768Z,30.1
2022-08-03T16:49:09.010Z,30.1
2022-08-03T16:52:13.520Z,30.1
2022-08-03T16:55:09.528Z,30.1
2022-08-03T16:58:13.999Z,30.1
2022-08-03T17:01:39.223Z,30.1
2022-08-03T17:04:13.670Z,30.1
2022-08-03T17:07:14.550Z,30.1
2022-08-03T17:10:10.668Z,30.1
2022-08-03T17:13:11.084Z,30.1
2022-08-03T17:16:08.196Z,30.1
2022-08-03T17:19:06.422Z,30.1
2022-08-03T17:22:06.810Z,30.1
2022-08-03T17:25:08.096Z,30.1
2022-08-03T17:28:58.603Z,30.1
2022-08-03T17:31:32.511Z,30.1
2022-08-03T17:34:07.593Z,30.1
2022-08-03T17:38:05.729Z,30.1
2022-08-03T17:40:08.404Z,30.1
2022-08-03T17:44:46.330Z,30.1
2022-08-03T17:46:12.517Z,30.1
2022-08-03T17:49:25.805Z,30.1
2022-08-03T17:52:20.049Z,30.1
2022-08-03T17:56:40.422Z,30
2022-08-03T17:58:11.557Z,30
2022-08-03T18:02:29.962Z,30
2022-08-03T18:04:12.265Z,30
2022-08-03T18:07:13.172Z,30
2022-08-03T18:10:16.252Z,30
2022-08-03T18:13:11.289Z,30
2022-08-03T18:16:10.778Z,30
2022-08-03T18:19:14.778Z,30
2022-08-03T18:22:06.625Z,30
2022-08-03T18:28:06.880Z,30
2022-08-03T18:31:07.924Z,30
2022-08-03T18:34:34.698Z,30
2022-08-03T18:40:07.808Z,29.8
2022-08-03T18:40:07.874Z,29.8
2022-08-03T18:43:09.241Z,29.8
2022-08-03T18:46:08.095Z,29.8
2022-08-03T18:49:11.739Z,29.8
2022-08-03T18:52:13.316Z,29.8
2022-08-03T18:52:28.866Z,29.8
2022-08-03T18:55:35.538Z,29.8
2022-08-03T18:58:18.427Z,29.8
2022-08-03T19:02:04.479Z,29.8
2022-08-03T19:04:10.056Z,29.8
2022-08-03T19:07:11.638Z,29.8
2022-08-03T19:10:10.047Z,29.8
2022-08-03T19:13:14.327Z,29.8
2022-08-03T19:16:18.319Z,29.8
2022-08-03T19:19:14.869Z,29.8
2022-08-03T19:22:10.901Z,29.4
2022-08-03T19:25:12.470Z,29.4
2022-08-03T19:28:07.690Z,29.4
2022-08-03T19:31:15.159Z,29.4
2022-08-03T19:34:08.118Z,29.4
2022-08-03T19:37:07.090Z,29.4
2022-08-03T19:40:12.801Z,29.4
2022-08-03T19:43:09.914Z,29.4
2022-08-03T19:46:08.909Z,29.4
2022-08-03T19:49:16.402Z,29.4
2022-08-03T19:52:08.256Z,29.4
2022-08-03T19:55:12.947Z,29.4
2022-08-03T19:58:28.909Z,29.4
2022-08-03T20:01:21.954Z,29.4
2022-08-03T20:04:09.431Z,28.9
2022-08-03T20:07:09.519Z,28.9
2022-08-03T20:10:09.689Z,28.9
2022-08-03T20:13:09.946Z,28.9
2022-08-03T20:16:11.961Z,28.9
2022-08-03T20:19:14.972Z,28.9
2022-08-03T20:22:14.964Z,28.9
2022-08-03T20:25:05.866Z,28.9
2022-08-03T20:28:15.614Z,28.9
2022-08-03T20:31:11.379Z,28.9
2022-08-03T20:40:07.056Z,28.9
2022-08-03T20:43:07.869Z,28.9
2022-08-03T20:46:53.422Z,28.9
2022-08-03T20:49:07.802Z,28.9
2022-08-03T20:52:19.757Z,28.9
2022-08-03T20:55:15.047Z,28.9
2022-08-03T20:58:08.521Z,28.9
2022-08-03T21:01:09.408Z,28.9
2022-08-03T21:31:11.763Z,28.2
2022-08-03T21:34:06.343Z,28.2
2022-08-03T21:37:06.577Z,28.2
2022-08-03T21:40:06.835Z,28.2
2022-08-03T21:43:10.376Z,28.2
2022-08-03T21:46:07.307Z,28.2
2022-08-03T21:50:10.163Z,28.2
2022-08-03T21:52:07.853Z,28.2
2022-08-03T21:55:08.044Z,28.2
2022-08-03T21:58:08.284Z,28.2
2022-08-03T22:01:10.317Z,28.2
2022-08-03T22:04:57.574Z,28.2
2022-08-03T22:07:09.025Z,28.2
2022-08-03T22:10:09.296Z,28.2
2022-08-03T22:13:09.510Z,27.5
2022-08-03T22:16:09.756Z,27.5
2022-08-03T22:19:09.962Z,27.5
2022-08-03T22:22:10.190Z,27.5
2022-08-03T22:25:10.449Z,27.5
2022-08-03T22:28:10.678Z,27.5
2022-08-03T22:31:59.753Z,27.5
2022-08-03T22:34:11.143Z,27.5
2022-08-03T22:37:06.387Z,27.5
2022-08-03T22:40:06.649Z,27.5
2022-08-03T22:43:06.845Z,27.5
2022-08-03T22:46:19.057Z,27.5
2022-08-03T22:49:07.546Z,27.5
2022-08-03T22:52:07.732Z,27.5
2022-08-03T22:55:07.856Z,27.5
2022-08-03T22:58:08.085Z,26.8
2022-08-03T23:01:08.344Z,26.8
2022-08-03T23:04:08.970Z,26.8
2022-08-03T23:07:08.806Z,26.8
2022-08-03T23:10:09.066Z,26.8
2022-08-03T23:13:09.265Z,26.8
2022-08-03T23:16:09.534Z,26.8
2022-08-03T23:19:26.272Z,26.8
2022-08-03T23:22:31.060Z,26.8
2022-08-03T23:25:10.224Z,26.8
2022-08-03T23:28:10.484Z,26.8
2022-08-03T23:31:12.313Z,26.8
2022-08-03T23:34:17.118Z,26.8
2022-08-03T23:37:06.188Z,26.8
2022-08-03T23:40:06.451Z,26
2022-08-03T23:43:06.678Z,26
2022-08-03T23:46:06.912Z,26
2022-08-03T23:49:07.147Z,26
2022-08-03T23:52:07.426Z,26
2022-08-03T23:55:07.622Z,26
2022-08-03T23:58:11.463Z,26
